sensor_id;sensor_type;location;lat;lon;timestamp;temperature;humidity
80176;DHT22;69501;42.124;24.722;2023-07-20T00:01:13;29.40;35.70
80176;DHT22;69501;42.124;24.722;2023-07-20T00:03:39;29.40;35.90
80176;DHT22;69501;42.124;24.722;2023-07-20T00:06:05;29.30;35.70
80176;DHT22;69501;42.124;24.722;2023-07-20T00:08:30;29.30;35.70
80176;DHT22;69501;42.124;24.722;2023-07-20T00:10:56;29.30;35.40
80176;DHT22;69501;42.124;24.722;2023-07-20T00:13:22;29.40;35.00
80176;DHT22;69501;42.124;24.722;2023-07-20T00:15:48;29.50;34.70
80176;DHT22;69501;42.124;24.722;2023-07-20T00:18:13;29.60;34.10
80176;DHT22;69501;42.124;24.722;2023-07-20T00:20:39;29.80;33.50
80176;DHT22;69501;42.124;24.722;2023-07-20T00:23:05;29.90;33.20
80176;DHT22;69501;42.124;24.722;2023-07-20T00:25:31;29.90;32.40
80176;DHT22;69501;42.124;24.722;2023-07-20T00:27:57;30.00;32.10
80176;DHT22;69501;42.124;24.722;2023-07-20T00:30:22;30.10;32.00
80176;DHT22;69501;42.124;24.722;2023-07-20T00:32:48;30.10;31.90
80176;DHT22;69501;42.124;24.722;2023-07-20T00:35:14;30.10;31.80
80176;DHT22;69501;42.124;24.722;2023-07-20T00:37:40;30.10;31.80
80176;DHT22;69501;42.124;24.722;2023-07-20T00:40:06;30.20;31.70
80176;DHT22;69501;42.124;24.722;2023-07-20T00:42:33;30.20;31.40
80176;DHT22;69501;42.124;24.722;2023-07-20T00:44:59;30.30;31.20
80176;DHT22;69501;42.124;24.722;2023-07-20T00:47:26;30.30;31.00
80176;DHT22;69501;42.124;24.722;2023-07-20T00:49:52;30.40;31.00
80176;DHT22;69501;42.124;24.722;2023-07-20T00:52:20;30.30;30.70
80176;DHT22;69501;42.124;24.722;2023-07-20T00:54:47;30.40;30.70
80176;DHT22;69501;42.124;24.722;2023-07-20T00:57:14;30.40;30.50
80176;DHT22;69501;42.124;24.722;2023-07-20T00:59:41;30.50;30.40
80176;DHT22;69501;42.124;24.722;2023-07-20T01:02:06;30.60;30.30
80176;DHT22;69501;42.124;24.722;2023-07-20T01:04:33;30.70;30.00
80176;DHT22;69501;42.124;24.722;2023-07-20T01:09:50;30.80;30.00
80176;DHT22;69501;42.124;24.722;2023-07-20T01:14:46;30.90;29.70
80176;DHT22;69501;42.124;24.722;2023-07-20T01:17:13;30.90;29.70
80176;DHT22;69501;42.124;24.722;2023-07-20T01:19:39;31.00;29.80
80176;DHT22;69501;42.124;24.722;2023-07-20T01:28:03;30.90;30.10
80176;DHT22;69501;42.124;24.722;2023-07-20T01:30:45;30.80;30.10
80176;DHT22;69501;42.124;24.722;2023-07-20T01:33:16;30.80;30.00
80176;DHT22;69501;42.124;24.722;2023-07-20T01:35:43;30.70;29.80
80176;DHT22;69501;42.124;24.722;2023-07-20T01:38:11;30.80;29.70
80176;DHT22;69501;42.124;24.722;2023-07-20T01:40:38;30.80;29.70
80176;DHT22;69501;42.124;24.722;2023-07-20T01:43:04;30.80;29.70
80176;DHT22;69501;42.124;24.722;2023-07-20T01:45:30;30.80;29.70
80176;DHT22;69501;42.124;24.722;2023-07-20T01:47:56;30.80;29.70
80176;DHT22;69501;42.124;24.722;2023-07-20T01:50:22;30.80;29.70
80176;DHT22;69501;42.124;24.722;2023-07-20T01:52:47;30.80;29.70
80176;DHT22;69501;42.124;24.722;2023-07-20T01:55:13;30.90;29.70
80176;DHT22;69501;42.124;24.722;2023-07-20T01:57:39;30.80;29.70
80176;DHT22;69501;42.124;24.722;2023-07-20T02:00:05;30.90;29.70
80176;DHT22;69501;42.124;24.722;2023-07-20T02:02:32;30.90;29.70
80176;DHT22;69501;42.124;24.722;2023-07-20T02:04:58;30.90;29.70
80176;DHT22;69501;42.124;24.722;2023-07-20T02:07:23;30.90;29.70
80176;DHT22;69501;42.124;24.722;2023-07-20T02:09:49;30.80;29.70
80176;DHT22;69501;42.124;24.722;2023-07-20T02:12:15;30.80;30.00
80176;DHT22;69501;42.124;24.722;2023-07-20T02:14:40;30.80;30.20
80176;DHT22;69501;42.124;24.722;2023-07-20T02:17:06;30.70;30.10
80176;DHT22;69501;42.124;24.722;2023-07-20T02:19:32;30.70;30.40
80176;DHT22;69501;42.124;24.722;2023-07-20T02:21:57;30.70;30.40
80176;DHT22;69501;42.124;24.722;2023-07-20T02:24:23;30.70;30.70
80176;DHT22;69501;42.124;24.722;2023-07-20T02:26:50;30.70;31.10
80176;DHT22;69501;42.124;24.722;2023-07-20T02:29:16;30.70;30.90
80176;DHT22;69501;42.124;24.722;2023-07-20T02:31:41;30.60;30.70
80176;DHT22;69501;42.124;24.722;2023-07-20T02:34:08;30.60;30.80
80176;DHT22;69501;42.124;24.722;2023-07-20T02:36:35;30.60;30.80
80176;DHT22;69501;42.124;24.722;2023-07-20T02:39:01;30.60;31.30
80176;DHT22;69501;42.124;24.722;2023-07-20T02:41:32;30.40;32.10
80176;DHT22;69501;42.124;24.722;2023-07-20T02:43:58;30.20;32.40
80176;DHT22;69501;42.124;24.722;2023-07-20T02:46:24;30.10;32.80
80176;DHT22;69501;42.124;24.722;2023-07-20T02:48:50;30.00;33.00
80176;DHT22;69501;42.124;24.722;2023-07-20T02:51:15;29.90;33.20
80176;DHT22;69501;42.124;24.722;2023-07-20T02:53:41;29.80;33.20
80176;DHT22;69501;42.124;24.722;2023-07-20T02:56:07;29.80;33.60
80176;DHT22;69501;42.124;24.722;2023-07-20T02:58:34;29.70;33.60
80176;DHT22;69501;42.124;24.722;2023-07-20T03:01:02;29.70;33.50
80176;DHT22;69501;42.124;24.722;2023-07-20T03:03:28;29.80;33.50
80176;DHT22;69501;42.124;24.722;2023-07-20T03:05:54;29.80;33.50
80176;DHT22;69501;42.124;24.722;2023-07-20T03:08:21;29.70;33.50
80176;DHT22;69501;42.124;24.722;2023-07-20T03:10:47;29.70;33.50
80176;DHT22;69501;42.124;24.722;2023-07-20T03:13:13;29.70;33.40
80176;DHT22;69501;42.124;24.722;2023-07-20T03:15:39;29.70;33.40
80176;DHT22;69501;42.124;24.722;2023-07-20T03:18:05;29.70;33.50
80176;DHT22;69501;42.124;24.722;2023-07-20T03:20:31;29.70;33.70
80176;DHT22;69501;42.124;24.722;2023-07-20T03:22:56;29.60;34.10
80176;DHT22;69501;42.124;24.722;2023-07-20T03:25:22;29.60;34.10
80176;DHT22;69501;42.124;24.722;2023-07-20T03:27:48;29.60;34.10
80176;DHT22;69501;42.124;24.722;2023-07-20T03:30:14;29.60;34.10
80176;DHT22;69501;42.124;24.722;2023-07-20T03:32:40;29.60;34.30
80176;DHT22;69501;42.124;24.722;2023-07-20T03:35:06;29.60;33.90
80176;DHT22;69501;42.124;24.722;2023-07-20T03:37:32;29.60;33.40
80176;DHT22;69501;42.124;24.722;2023-07-20T03:40:00;29.70;33.20
80176;DHT22;69501;42.124;24.722;2023-07-20T03:42:25;29.70;33.40
80176;DHT22;69501;42.124;24.722;2023-07-20T03:44:51;29.70;34.00
80176;DHT22;69501;42.124;24.722;2023-07-20T03:47:17;29.70;33.60
80176;DHT22;69501;42.124;24.722;2023-07-20T03:49:42;29.70;34.20
80176;DHT22;69501;42.124;24.722;2023-07-20T03:52:11;29.60;33.30
80176;DHT22;69501;42.124;24.722;2023-07-20T03:54:36;29.70;33.40
80176;DHT22;69501;42.124;24.722;2023-07-20T03:57:02;29.80;32.80
80176;DHT22;69501;42.124;24.722;2023-07-20T03:59:28;29.90;32.50
80176;DHT22;69501;42.124;24.722;2023-07-20T04:01:53;30.00;32.30
80176;DHT22;69501;42.124;24.722;2023-07-20T04:04:19;30.10;31.90
80176;DHT22;69501;42.124;24.722;2023-07-20T04:06:45;30.10;31.70
80176;DHT22;69501;42.124;24.722;2023-07-20T04:09:12;30.20;31.80
80176;DHT22;69501;42.124;24.722;2023-07-20T04:11:38;30.20;31.80
80176;DHT22;69501;42.124;24.722;2023-07-20T04:14:04;30.20;31.70
80176;DHT22;69501;42.124;24.722;2023-07-20T04:16:29;30.20;31.90
80176;DHT22;69501;42.124;24.722;2023-07-20T04:18:56;30.20;31.90
80176;DHT22;69501;42.124;24.722;2023-07-20T04:21:23;30.30;31.90
80176;DHT22;69501;42.124;24.722;2023-07-20T04:23:49;30.30;31.50
80176;DHT22;69501;42.124;24.722;2023-07-20T04:26:14;30.10;31.30
80176;DHT22;69501;42.124;24.722;2023-07-20T04:28:43;30.10;31.30
80176;DHT22;69501;42.124;24.722;2023-07-20T04:31:12;30.10;31.40
80176;DHT22;69501;42.124;24.722;2023-07-20T04:33:38;30.20;31.20
80176;DHT22;69501;42.124;24.722;2023-07-20T04:36:04;30.20;31.30
80176;DHT22;69501;42.124;24.722;2023-07-20T04:38:30;30.30;31.20
80176;DHT22;69501;42.124;24.722;2023-07-20T04:40:56;30.30;31.30
80176;DHT22;69501;42.124;24.722;2023-07-20T04:43:21;30.30;31.50
80176;DHT22;69501;42.124;24.722;2023-07-20T04:45:47;30.30;31.70
80176;DHT22;69501;42.124;24.722;2023-07-20T04:48:14;30.40;31.80
80176;DHT22;69501;42.124;24.722;2023-07-20T04:50:42;30.40;31.70
80176;DHT22;69501;42.124;24.722;2023-07-20T04:53:13;30.40;31.30
80176;DHT22;69501;42.124;24.722;2023-07-20T04:55:39;30.40;31.80
80176;DHT22;69501;42.124;24.722;2023-07-20T04:58:06;30.40;31.30
80176;DHT22;69501;42.124;24.722;2023-07-20T05:00:33;30.40;31.20
80176;DHT22;69501;42.124;24.722;2023-07-20T05:02:59;30.40;31.20
80176;DHT22;69501;42.124;24.722;2023-07-20T05:05:25;30.50;31.40
80176;DHT22;69501;42.124;24.722;2023-07-20T05:07:51;30.50;31.20
80176;DHT22;69501;42.124;24.722;2023-07-20T05:10:17;30.50;30.90
80176;DHT22;69501;42.124;24.722;2023-07-20T05:12:43;30.60;31.60
80176;DHT22;69501;42.124;24.722;2023-07-20T05:15:09;30.60;32.30
80176;DHT22;69501;42.124;24.722;2023-07-20T05:17:35;30.40;32.90
80176;DHT22;69501;42.124;24.722;2023-07-20T05:20:00;30.50;32.20
80176;DHT22;69501;42.124;24.722;2023-07-20T05:22:26;30.50;32.40
80176;DHT22;69501;42.124;24.722;2023-07-20T05:24:52;30.60;32.90
80176;DHT22;69501;42.124;24.722;2023-07-20T05:27:17;30.60;32.90
80176;DHT22;69501;42.124;24.722;2023-07-20T05:29:44;30.60;32.50
80176;DHT22;69501;42.124;24.722;2023-07-20T05:32:10;30.60;32.40
80176;DHT22;69501;42.124;24.722;2023-07-20T05:34:35;30.60;32.50
80176;DHT22;69501;42.124;24.722;2023-07-20T05:37:01;30.60;32.80
80176;DHT22;69501;42.124;24.722;2023-07-20T05:39:27;30.60;32.90
80176;DHT22;69501;42.124;24.722;2023-07-20T05:41:52;30.60;32.50
80176;DHT22;69501;42.124;24.722;2023-07-20T05:44:18;30.60;32.60
80176;DHT22;69501;42.124;24.722;2023-07-20T05:46:43;30.60;34.30
80176;DHT22;69501;42.124;24.722;2023-07-20T05:49:10;30.60;34.70
80176;DHT22;69501;42.124;24.722;2023-07-20T05:51:35;30.60;35.20
80176;DHT22;69501;42.124;24.722;2023-07-20T05:54:01;30.60;36.40
80176;DHT22;69501;42.124;24.722;2023-07-20T05:56:27;30.40;36.50
80176;DHT22;69501;42.124;24.722;2023-07-20T05:58:53;30.40;37.00
80176;DHT22;69501;42.124;24.722;2023-07-20T06:01:18;30.30;37.50
80176;DHT22;69501;42.124;24.722;2023-07-20T06:03:44;30.30;37.20
80176;DHT22;69501;42.124;24.722;2023-07-20T06:06:10;30.20;37.60
80176;DHT22;69501;42.124;24.722;2023-07-20T06:08:37;30.20;37.00
80176;DHT22;69501;42.124;24.722;2023-07-20T06:11:03;30.20;37.60
80176;DHT22;69501;42.124;24.722;2023-07-20T06:13:29;30.30;37.30
80176;DHT22;69501;42.124;24.722;2023-07-20T06:15:55;30.30;37.10
80176;DHT22;69501;42.124;24.722;2023-07-20T06:18:23;30.20;36.50
80176;DHT22;69501;42.124;24.722;2023-07-20T06:20:52;30.20;36.30
80176;DHT22;69501;42.124;24.722;2023-07-20T06:23:21;30.20;36.30
80176;DHT22;69501;42.124;24.722;2023-07-20T06:25:47;30.20;36.70
80176;DHT22;69501;42.124;24.722;2023-07-20T06:28:13;30.20;36.60
80176;DHT22;69501;42.124;24.722;2023-07-20T06:30:39;30.10;36.80
80176;DHT22;69501;42.124;24.722;2023-07-20T06:33:05;30.20;36.30
80176;DHT22;69501;42.124;24.722;2023-07-20T06:35:32;30.20;36.10
80176;DHT22;69501;42.124;24.722;2023-07-20T06:37:57;30.20;37.20
80176;DHT22;69501;42.124;24.722;2023-07-20T06:40:24;30.20;37.30
80176;DHT22;69501;42.124;24.722;2023-07-20T06:42:50;30.30;37.40
80176;DHT22;69501;42.124;24.722;2023-07-20T06:45:16;30.30;37.90
80176;DHT22;69501;42.124;24.722;2023-07-20T06:47:41;30.30;36.80
80176;DHT22;69501;42.124;24.722;2023-07-20T06:50:08;30.30;37.30
80176;DHT22;69501;42.124;24.722;2023-07-20T06:52:34;30.40;36.90
80176;DHT22;69501;42.124;24.722;2023-07-20T06:55:00;30.40;36.60
80176;DHT22;69501;42.124;24.722;2023-07-20T06:57:26;30.50;35.80
80176;DHT22;69501;42.124;24.722;2023-07-20T06:59:52;30.60;35.60
80176;DHT22;69501;42.124;24.722;2023-07-20T07:02:19;30.60;34.60
80176;DHT22;69501;42.124;24.722;2023-07-20T07:04:44;30.70;34.90
80176;DHT22;69501;42.124;24.722;2023-07-20T07:07:11;30.70;35.30
80176;DHT22;69501;42.124;24.722;2023-07-20T07:09:36;30.90;34.30
80176;DHT22;69501;42.124;24.722;2023-07-20T07:12:02;30.90;33.30
80176;DHT22;69501;42.124;24.722;2023-07-20T07:14:28;31.00;33.00
80176;DHT22;69501;42.124;24.722;2023-07-20T07:16:53;31.20;32.30
80176;DHT22;69501;42.124;24.722;2023-07-20T07:19:19;31.20;31.90
80176;DHT22;69501;42.124;24.722;2023-07-20T07:21:45;31.30;32.10
80176;DHT22;69501;42.124;24.722;2023-07-20T07:24:11;31.30;32.10
80176;DHT22;69501;42.124;24.722;2023-07-20T07:26:37;31.40;31.80
80176;DHT22;69501;42.124;24.722;2023-07-20T07:29:03;31.50;32.10
80176;DHT22;69501;42.124;24.722;2023-07-20T07:31:30;31.50;32.20
80176;DHT22;69501;42.124;24.722;2023-07-20T07:33:56;31.50;32.00
80176;DHT22;69501;42.124;24.722;2023-07-20T07:36:22;31.60;31.30
80176;DHT22;69501;42.124;24.722;2023-07-20T07:38:50;31.70;31.40
80176;DHT22;69501;42.124;24.722;2023-07-20T07:41:15;31.80;31.20
80176;DHT22;69501;42.124;24.722;2023-07-20T07:43:41;31.80;30.90
80176;DHT22;69501;42.124;24.722;2023-07-20T07:46:07;31.90;30.80
80176;DHT22;69501;42.124;24.722;2023-07-20T07:48:33;32.00;30.60
80176;DHT22;69501;42.124;24.722;2023-07-20T07:50:58;32.00;30.30
80176;DHT22;69501;42.124;24.722;2023-07-20T07:53:24;32.10;30.40
80176;DHT22;69501;42.124;24.722;2023-07-20T07:55:51;32.10;30.30
80176;DHT22;69501;42.124;24.722;2023-07-20T07:58:17;32.10;30.00
80176;DHT22;69501;42.124;24.722;2023-07-20T08:00:43;32.20;29.90
80176;DHT22;69501;42.124;24.722;2023-07-20T08:03:10;32.30;29.70
80176;DHT22;69501;42.124;24.722;2023-07-20T08:05:36;32.40;29.70
80176;DHT22;69501;42.124;24.722;2023-07-20T08:08:04;32.40;29.50
80176;DHT22;69501;42.124;24.722;2023-07-20T08:10:30;32.40;29.40
80176;DHT22;69501;42.124;24.722;2023-07-20T08:12:56;32.50;29.70
80176;DHT22;69501;42.124;24.722;2023-07-20T08:15:22;32.60;29.20
80176;DHT22;69501;42.124;24.722;2023-07-20T08:17:47;32.60;28.60
80176;DHT22;69501;42.124;24.722;2023-07-20T08:20:15;32.70;28.60
80176;DHT22;69501;42.124;24.722;2023-07-20T08:22:42;32.70;28.50
80176;DHT22;69501;42.124;24.722;2023-07-20T08:25:08;32.80;28.60
80176;DHT22;69501;42.124;24.722;2023-07-20T08:27:35;32.80;28.40
80176;DHT22;69501;42.124;24.722;2023-07-20T08:30:00;32.80;28.30
80176;DHT22;69501;42.124;24.722;2023-07-20T08:32:26;32.80;28.30
80176;DHT22;69501;42.124;24.722;2023-07-20T08:34:52;32.90;28.30
80176;DHT22;69501;42.124;24.722;2023-07-20T08:37:18;33.00;28.30
80176;DHT22;69501;42.124;24.722;2023-07-20T08:39:43;33.10;28.10
80176;DHT22;69501;42.124;24.722;2023-07-20T08:42:10;33.10;28.00
80176;DHT22;69501;42.124;24.722;2023-07-20T08:44:38;33.10;28.00
80176;DHT22;69501;42.124;24.722;2023-07-20T08:47:04;33.10;27.70
80176;DHT22;69501;42.124;24.722;2023-07-20T08:49:35;33.30;27.80
80176;DHT22;69501;42.124;24.722;2023-07-20T08:52:00;33.30;27.40
80176;DHT22;69501;42.124;24.722;2023-07-20T08:54:30;33.40;27.40
80176;DHT22;69501;42.124;24.722;2023-07-20T08:57:03;33.40;27.20
80176;DHT22;69501;42.124;24.722;2023-07-20T08:59:29;33.40;27.30
80176;DHT22;69501;42.124;24.722;2023-07-20T09:01:57;33.40;27.20
80176;DHT22;69501;42.124;24.722;2023-07-20T09:04:23;33.50;27.30
80176;DHT22;69501;42.124;24.722;2023-07-20T09:06:49;33.50;27.20
80176;DHT22;69501;42.124;24.722;2023-07-20T09:09:15;33.50;27.20
80176;DHT22;69501;42.124;24.722;2023-07-20T09:11:41;33.50;27.30
80176;DHT22;69501;42.124;24.722;2023-07-20T09:14:08;33.50;27.30
80176;DHT22;69501;42.124;24.722;2023-07-20T09:16:54;33.50;27.40
80176;DHT22;69501;42.124;24.722;2023-07-20T09:19:21;33.60;27.40
80176;DHT22;69501;42.124;24.722;2023-07-20T09:21:48;33.70;27.30
80176;DHT22;69501;42.124;24.722;2023-07-20T09:24:15;33.70;27.10
80176;DHT22;69501;42.124;24.722;2023-07-20T09:26:42;33.70;27.10
80176;DHT22;69501;42.124;24.722;2023-07-20T09:29:09;33.70;27.10
80176;DHT22;69501;42.124;24.722;2023-07-20T09:31:35;33.80;27.20
80176;DHT22;69501;42.124;24.722;2023-07-20T09:34:01;33.80;27.00
80176;DHT22;69501;42.124;24.722;2023-07-20T09:36:28;33.80;26.90
80176;DHT22;69501;42.124;24.722;2023-07-20T09:38:54;33.90;27.00
80176;DHT22;69501;42.124;24.722;2023-07-20T09:41:21;33.90;27.00
80176;DHT22;69501;42.124;24.722;2023-07-20T09:43:47;33.90;27.80
80176;DHT22;69501;42.124;24.722;2023-07-20T09:46:13;34.00;27.00
80176;DHT22;69501;42.124;24.722;2023-07-20T09:48:39;34.00;26.90
80176;DHT22;69501;42.124;24.722;2023-07-20T09:51:07;34.00;26.70
80176;DHT22;69501;42.124;24.722;2023-07-20T09:53:33;34.10;26.70
80176;DHT22;69501;42.124;24.722;2023-07-20T09:55:59;34.10;26.70
80176;DHT22;69501;42.124;24.722;2023-07-20T09:58:29;34.10;26.60
80176;DHT22;69501;42.124;24.722;2023-07-20T10:00:57;34.20;26.60
80176;DHT22;69501;42.124;24.722;2023-07-20T10:03:29;34.30;26.60
80176;DHT22;69501;42.124;24.722;2023-07-20T10:06:02;34.40;26.60
80176;DHT22;69501;42.124;24.722;2023-07-20T10:08:33;34.40;26.20
80176;DHT22;69501;42.124;24.722;2023-07-20T10:11:04;34.50;26.30
80176;DHT22;69501;42.124;24.722;2023-07-20T10:13:31;34.50;26.00
80176;DHT22;69501;42.124;24.722;2023-07-20T10:16:02;34.60;26.10
80176;DHT22;69501;42.124;24.722;2023-07-20T10:18:31;34.70;26.10
80176;DHT22;69501;42.124;24.722;2023-07-20T10:21:00;34.70;25.90
80176;DHT22;69501;42.124;24.722;2023-07-20T10:23:29;34.80;25.90
80176;DHT22;69501;42.124;24.722;2023-07-20T10:25:58;34.90;25.90
80176;DHT22;69501;42.124;24.722;2023-07-20T10:28:24;34.90;25.90
80176;DHT22;69501;42.124;24.722;2023-07-20T10:30:53;35.00;25.80
80176;DHT22;69501;42.124;24.722;2023-07-20T10:33:19;35.10;25.70
80176;DHT22;69501;42.124;24.722;2023-07-20T10:38:18;35.20;25.60
80176;DHT22;69501;42.124;24.722;2023-07-20T10:40:54;35.30;25.40
80176;DHT22;69501;42.124;24.722;2023-07-20T10:43:20;35.40;25.50
80176;DHT22;69501;42.124;24.722;2023-07-20T10:45:50;35.40;25.50
80176;DHT22;69501;42.124;24.722;2023-07-20T10:48:23;35.50;25.30
80176;DHT22;69501;42.124;24.722;2023-07-20T10:51:11;35.60;25.40
80176;DHT22;69501;42.124;24.722;2023-07-20T10:53:38;35.70;25.20
80176;DHT22;69501;42.124;24.722;2023-07-20T10:56:13;35.70;25.00
80176;DHT22;69501;42.124;24.722;2023-07-20T10:58:42;35.70;24.90
80176;DHT22;69501;42.124;24.722;2023-07-20T11:01:08;35.80;24.80
80176;DHT22;69501;42.124;24.722;2023-07-20T11:03:37;35.90;24.70
80176;DHT22;69501;42.124;24.722;2023-07-20T11:06:29;35.90;24.50
80176;DHT22;69501;42.124;24.722;2023-07-20T11:11:34;36.00;24.30
80176;DHT22;69501;42.124;24.722;2023-07-20T11:14:05;36.10;24.30
80176;DHT22;69501;42.124;24.722;2023-07-20T11:19:05;36.20;23.90
80176;DHT22;69501;42.124;24.722;2023-07-20T11:21:38;36.30;23.70
80176;DHT22;69501;42.124;24.722;2023-07-20T11:24:05;36.50;22.30
80176;DHT22;69501;42.124;24.722;2023-07-20T11:26:39;36.60;22.70
80176;DHT22;69501;42.124;24.722;2023-07-20T11:29:05;36.70;22.10
80176;DHT22;69501;42.124;24.722;2023-07-20T11:31:38;36.80;22.50
80176;DHT22;69501;42.124;24.722;2023-07-20T11:34:04;36.80;21.90
80176;DHT22;69501;42.124;24.722;2023-07-20T11:36:30;37.00;22.20
80176;DHT22;69501;42.124;24.722;2023-07-20T11:38:56;37.10;21.90
80176;DHT22;69501;42.124;24.722;2023-07-20T11:41:22;37.10;21.60
80176;DHT22;69501;42.124;24.722;2023-07-20T11:43:50;37.20;21.90
80176;DHT22;69501;42.124;24.722;2023-07-20T11:46:16;37.30;21.80
80176;DHT22;69501;42.124;24.722;2023-07-20T11:48:42;37.40;21.40
80176;DHT22;69501;42.124;24.722;2023-07-20T11:51:16;37.60;21.40
80176;DHT22;69501;42.124;24.722;2023-07-20T11:53:44;37.70;21.30
80176;DHT22;69501;42.124;24.722;2023-07-20T11:56:11;37.70;20.80
80176;DHT22;69501;42.124;24.722;2023-07-20T11:58:44;37.80;21.00
80176;DHT22;69501;42.124;24.722;2023-07-20T12:01:16;37.90;20.80
80176;DHT22;69501;42.124;24.722;2023-07-20T12:03:43;38.00;20.50
80176;DHT22;69501;42.124;24.722;2023-07-20T12:06:09;38.20;20.70
80176;DHT22;69501;42.124;24.722;2023-07-20T12:08:38;38.30;20.40
80176;DHT22;69501;42.124;24.722;2023-07-20T12:11:05;38.50;20.10
80176;DHT22;69501;42.124;24.722;2023-07-20T12:13:37;38.60;19.70
80176;DHT22;69501;42.124;24.722;2023-07-20T12:16:13;38.90;19.80
80176;DHT22;69501;42.124;24.722;2023-07-20T12:18:40;39.00;19.50
80176;DHT22;69501;42.124;24.722;2023-07-20T12:21:06;39.10;19.50
80176;DHT22;69501;42.124;24.722;2023-07-20T12:23:38;39.10;19.40
80176;DHT22;69501;42.124;24.722;2023-07-20T12:26:06;39.30;19.50
80176;DHT22;69501;42.124;24.722;2023-07-20T12:28:33;39.40;19.00
80176;DHT22;69501;42.124;24.722;2023-07-20T12:30:58;39.50;19.10
80176;DHT22;69501;42.124;24.722;2023-07-20T12:33:24;39.60;19.10
80176;DHT22;69501;42.124;24.722;2023-07-20T12:35:50;39.70;18.70
80176;DHT22;69501;42.124;24.722;2023-07-20T12:38:16;39.80;18.30
80176;DHT22;69501;42.124;24.722;2023-07-20T12:40:42;39.90;17.80
80176;DHT22;69501;42.124;24.722;2023-07-20T12:43:08;40.00;18.40
80176;DHT22;69501;42.124;24.722;2023-07-20T12:45:34;40.00;18.30
80176;DHT22;69501;42.124;24.722;2023-07-20T12:48:00;40.00;18.20
80176;DHT22;69501;42.124;24.722;2023-07-20T12:50:27;40.10;18.20
80176;DHT22;69501;42.124;24.722;2023-07-20T12:52:52;39.90;18.10
80176;DHT22;69501;42.124;24.722;2023-07-20T12:55:18;39.90;18.20
80176;DHT22;69501;42.124;24.722;2023-07-20T12:57:45;39.90;18.20
80176;DHT22;69501;42.124;24.722;2023-07-20T13:00:11;40.00;18.30
80176;DHT22;69501;42.124;24.722;2023-07-20T13:02:38;40.00;18.30
80176;DHT22;69501;42.124;24.722;2023-07-20T13:05:04;40.00;18.20
80176;DHT22;69501;42.124;24.722;2023-07-20T13:07:32;40.10;18.30
80176;DHT22;69501;42.124;24.722;2023-07-20T13:10:01;40.00;18.00
80176;DHT22;69501;42.124;24.722;2023-07-20T13:12:28;39.80;18.60
80176;DHT22;69501;42.124;24.722;2023-07-20T13:14:55;39.90;18.70
80176;DHT22;69501;42.124;24.722;2023-07-20T13:17:22;39.90;18.40
80176;DHT22;69501;42.124;24.722;2023-07-20T13:19:48;39.90;18.10
80176;DHT22;69501;42.124;24.722;2023-07-20T13:22:13;39.90;18.30
80176;DHT22;69501;42.124;24.722;2023-07-20T13:24:40;39.90;18.30
80176;DHT22;69501;42.124;24.722;2023-07-20T13:27:06;39.90;18.30
80176;DHT22;69501;42.124;24.722;2023-07-20T13:29:32;39.90;18.30
80176;DHT22;69501;42.124;24.722;2023-07-20T13:31:58;40.00;17.40
80176;DHT22;69501;42.124;24.722;2023-07-20T13:34:25;40.10;17.50
80176;DHT22;69501;42.124;24.722;2023-07-20T13:36:51;40.60;16.80
80176;DHT22;69501;42.124;24.722;2023-07-20T13:39:17;41.30;16.20
80176;DHT22;69501;42.124;24.722;2023-07-20T13:41:43;42.00;15.80
80176;DHT22;69501;42.124;24.722;2023-07-20T13:44:09;42.60;15.60
80176;DHT22;69501;42.124;24.722;2023-07-20T13:46:34;42.80;14.90
80176;DHT22;69501;42.124;24.722;2023-07-20T13:49:00;42.90;14.90
80176;DHT22;69501;42.124;24.722;2023-07-20T13:51:26;43.00;14.90
80176;DHT22;69501;42.124;24.722;2023-07-20T13:53:51;43.00;14.90
80176;DHT22;69501;42.124;24.722;2023-07-20T13:56:17;42.80;15.00
80176;DHT22;69501;42.124;24.722;2023-07-20T13:58:43;42.60;14.90
80176;DHT22;69501;42.124;24.722;2023-07-20T14:01:08;42.60;15.00
80176;DHT22;69501;42.124;24.722;2023-07-20T14:03:34;42.30;15.10
80176;DHT22;69501;42.124;24.722;2023-07-20T14:05:59;42.10;14.80
80176;DHT22;69501;42.124;24.722;2023-07-20T14:08:25;41.80;15.10
80176;DHT22;69501;42.124;24.722;2023-07-20T14:10:51;41.80;15.30
80176;DHT22;69501;42.124;24.722;2023-07-20T14:13:16;41.80;15.20
80176;DHT22;69501;42.124;24.722;2023-07-20T14:15:42;41.90;15.00
80176;DHT22;69501;42.124;24.722;2023-07-20T14:18:08;41.90;15.10
80176;DHT22;69501;42.124;24.722;2023-07-20T14:20:33;41.90;14.60
80176;DHT22;69501;42.124;24.722;2023-07-20T14:22:59;42.00;14.30
80176;DHT22;69501;42.124;24.722;2023-07-20T14:25:25;42.00;14.20
80176;DHT22;69501;42.124;24.722;2023-07-20T14:27:50;42.00;13.90
80176;DHT22;69501;42.124;24.722;2023-07-20T14:30:16;41.90;14.30
80176;DHT22;69501;42.124;24.722;2023-07-20T14:32:42;41.80;14.30
80176;DHT22;69501;42.124;24.722;2023-07-20T14:35:07;41.90;14.30
80176;DHT22;69501;42.124;24.722;2023-07-20T14:37:34;41.90;14.00
80176;DHT22;69501;42.124;24.722;2023-07-20T14:40:00;42.00;13.70
80176;DHT22;69501;42.124;24.722;2023-07-20T14:42:26;42.00;13.70
80176;DHT22;69501;42.124;24.722;2023-07-20T14:44:51;42.00;13.80
80176;DHT22;69501;42.124;24.722;2023-07-20T14:47:17;42.00;13.60
80176;DHT22;69501;42.124;24.722;2023-07-20T14:49:43;42.10;13.80
80176;DHT22;69501;42.124;24.722;2023-07-20T14:52:09;42.00;13.70
80176;DHT22;69501;42.124;24.722;2023-07-20T14:54:35;42.10;13.90
80176;DHT22;69501;42.124;24.722;2023-07-20T14:57:01;42.10;13.90
80176;DHT22;69501;42.124;24.722;2023-07-20T14:59:27;42.10;13.70
80176;DHT22;69501;42.124;24.722;2023-07-20T15:01:52;42.00;12.80
80176;DHT22;69501;42.124;24.722;2023-07-20T15:04:18;42.00;12.40
80176;DHT22;69501;42.124;24.722;2023-07-20T15:06:44;41.90;12.70
80176;DHT22;69501;42.124;24.722;2023-07-20T15:09:10;41.90;13.10
80176;DHT22;69501;42.124;24.722;2023-07-20T15:11:36;42.00;13.20
80176;DHT22;69501;42.124;24.722;2023-07-20T15:14:02;41.90;13.10
80176;DHT22;69501;42.124;24.722;2023-07-20T15:16:28;42.00;12.90
80176;DHT22;69501;42.124;24.722;2023-07-20T15:18:53;42.00;12.50
80176;DHT22;69501;42.124;24.722;2023-07-20T15:21:22;41.70;12.60
80176;DHT22;69501;42.124;24.722;2023-07-20T15:23:49;41.40;13.00
80176;DHT22;69501;42.124;24.722;2023-07-20T15:26:18;41.20;13.40
80176;DHT22;69501;42.124;24.722;2023-07-20T15:28:44;41.20;13.60
80176;DHT22;69501;42.124;24.722;2023-07-20T15:31:10;41.10;13.80